sensor_id;sensor_type;location;lat;lon;timestamp;temperature;humidity
14884;DHT22;7534;50.762;7.000;2022-08-19T00:01:35;21.10;98.30
14884;DHT22;7534;50.762;7.000;2022-08-19T00:04:05;21.00;98.40
14884;DHT22;7534;50.762;7.000;2022-08-19T00:06:34;21.00;98.50
14884;DHT22;7534;50.762;7.000;2022-08-19T00:09:05;21.00;98.50
14884;DHT22;7534;50.762;7.000;2022-08-19T00:11:32;21.00;98.50
14884;DHT22;7534;50.762;7.000;2022-08-19T00:13:59;20.90;98.70
14884;DHT22;7534;50.762;7.000;2022-08-19T00:16:25;20.90;98.90
14884;DHT22;7534;50.762;7.000;2022-08-19T00:18:51;20.90;98.90
14884;DHT22;7534;50.762;7.000;2022-08-19T00:21:17;20.80;99.10
14884;DHT22;7534;50.762;7.000;2022-08-19T00:23:43;20.60;99.30
14884;DHT22;7534;50.762;7.000;2022-08-19T00:26:10;20.70;99.50
14884;DHT22;7534;50.762;7.000;2022-08-19T00:28:36;20.60;99.50
14884;DHT22;7534;50.762;7.000;2022-08-19T00:31:03;20.50;99.60
14884;DHT22;7534;50.762;7.000;2022-08-19T00:33:31;20.60;99.60
14884;DHT22;7534;50.762;7.000;2022-08-19T00:36:02;20.60;99.90
14884;DHT22;7534;50.762;7.000;2022-08-19T00:38:32;20.50;99.70
14884;DHT22;7534;50.762;7.000;2022-08-19T00:40:59;20.50;99.70
14884;DHT22;7534;50.762;7.000;2022-08-19T00:43:27;20.50;99.80
14884;DHT22;7534;50.762;7.000;2022-08-19T00:45:53;20.50;99.90
14884;DHT22;7534;50.762;7.000;2022-08-19T00:48:20;20.50;99.90
14884;DHT22;7534;50.762;7.000;2022-08-19T00:50:49;20.50;99.90
14884;DHT22;7534;50.762;7.000;2022-08-19T00:53:22;20.30;99.90
14884;DHT22;7534;50.762;7.000;2022-08-19T00:55:54;20.30;99.90
14884;DHT22;7534;50.762;7.000;2022-08-19T00:58:27;20.30;99.90
14884;DHT22;7534;50.762;7.000;2022-08-19T01:00:55;20.30;99.90
14884;DHT22;7534;50.762;7.000;2022-08-19T01:03:22;20.30;99.90
14884;DHT22;7534;50.762;7.000;2022-08-19T01:05:51;20.40;99.90
14884;DHT22;7534;50.762;7.000;2022-08-19T01:08:19;20.40;99.90
14884;DHT22;7534;50.762;7.000;2022-08-19T01:10:50;20.30;99.90
14884;DHT22;7534;50.762;7.000;2022-08-19T01:13:21;20.10;99.90
14884;DHT22;7534;50.762;7.000;2022-08-19T01:16:05;20.10;99.90
14884;DHT22;7534;50.762;7.000;2022-08-19T01:18:39;20.10;99.90
14884;DHT22;7534;50.762;7.000;2022-08-19T01:21:22;20.10;99.90
14884;DHT22;7534;50.762;7.000;2022-08-19T01:24:07;20.20;99.90
14884;DHT22;7534;50.762;7.000;2022-08-19T01:26:39;20.10;99.90
14884;DHT22;7534;50.762;7.000;2022-08-19T01:29:07;20.00;99.90
14884;DHT22;7534;50.762;7.000;2022-08-19T01:31:34;20.00;99.90
14884;DHT22;7534;50.762;7.000;2022-08-19T01:34:01;20.00;99.90
14884;DHT22;7534;50.762;7.000;2022-08-19T01:36:35;19.90;99.90
14884;DHT22;7534;50.762;7.000;2022-08-19T01:39:10;19.90;99.90
14884;DHT22;7534;50.762;7.000;2022-08-19T01:41:37;20.00;99.90
14884;DHT22;7534;50.762;7.000;2022-08-19T01:44:05;19.90;99.90
14884;DHT22;7534;50.762;7.000;2022-08-19T01:46:32;19.90;99.90
14884;DHT22;7534;50.762;7.000;2022-08-19T01:48:58;19.90;99.90
14884;DHT22;7534;50.762;7.000;2022-08-19T01:51:24;19.80;99.90
14884;DHT22;7534;50.762;7.000;2022-08-19T01:53:51;19.80;99.90
14884;DHT22;7534;50.762;7.000;2022-08-19T01:56:18;19.70;99.90
14884;DHT22;7534;50.762;7.000;2022-08-19T01:58:53;19.60;99.90
14884;DHT22;7534;50.762;7.000;2022-08-19T02:01:23;19.60;99.90
14884;DHT22;7534;50.762;7.000;2022-08-19T02:03:49;19.60;99.90
14884;DHT22;7534;50.762;7.000;2022-08-19T02:06:14;19.60;99.90
14884;DHT22;7534;50.762;7.000;2022-08-19T02:08:42;19.60;99.90
14884;DHT22;7534;50.762;7.000;2022-08-19T02:11:23;19.70;99.90
14884;DHT22;7534;50.762;7.000;2022-08-19T02:13:52;19.80;99.90
14884;DHT22;7534;50.762;7.000;2022-08-19T02:16:20;19.80;99.90
14884;DHT22;7534;50.762;7.000;2022-08-19T02:18:47;19.80;99.90
14884;DHT22;7534;50.762;7.000;2022-08-19T02:21:17;19.80;99.90
14884;DHT22;7534;50.762;7.000;2022-08-19T02:23:45;19.80;99.90
14884;DHT22;7534;50.762;7.000;2022-08-19T02:26:12;19.70;99.90
14884;DHT22;7534;50.762;7.000;2022-08-19T02:28:39;19.80;99.90
14884;DHT22;7534;50.762;7.000;2022-08-19T02:31:10;19.70;99.90
14884;DHT22;7534;50.762;7.000;2022-08-19T02:33:37;19.70;99.90
14884;DHT22;7534;50.762;7.000;2022-08-19T02:36:04;19.70;99.90
14884;DHT22;7534;50.762;7.000;2022-08-19T02:38:31;19.60;99.90
14884;DHT22;7534;50.762;7.000;2022-08-19T02:41:00;19.60;99.90
14884;DHT22;7534;50.762;7.000;2022-08-19T02:43:30;19.50;99.90
14884;DHT22;7534;50.762;7.000;2022-08-19T02:45:57;19.50;99.90
14884;DHT22;7534;50.762;7.000;2022-08-19T02:48:24;19.40;99.90
14884;DHT22;7534;50.762;7.000;2022-08-19T02:50:52;19.30;99.90
14884;DHT22;7534;50.762;7.000;2022-08-19T02:53:25;19.40;99.90
14884;DHT22;7534;50.762;7.000;2022-08-19T02:55:52;19.40;99.90
14884;DHT22;7534;50.762;7.000;2022-08-19T02:58:20;19.30;99.90
14884;DHT22;7534;50.762;7.000;2022-08-19T03:00:52;19.20;99.90
14884;DHT22;7534;50.762;7.000;2022-08-19T03:03:20;19.40;99.90
14884;DHT22;7534;50.762;7.000;2022-08-19T03:05:46;19.30;99.90
14884;DHT22;7534;50.762;7.000;2022-08-19T03:08:13;19.40;99.90
14884;DHT22;7534;50.762;7.000;2022-08-19T03:10:44;19.30;99.90
14884;DHT22;7534;50.762;7.000;2022-08-19T03:13:13;19.30;99.90
14884;DHT22;7534;50.762;7.000;2022-08-19T03:15:46;19.30;99.90
14884;DHT22;7534;50.762;7.000;2022-08-19T03:18:14;19.30;99.90
14884;DHT22;7534;50.762;7.000;2022-08-19T03:20:46;19.30;99.90
14884;DHT22;7534;50.762;7.000;2022-08-19T03:23:22;19.30;99.90
14884;DHT22;7534;50.762;7.000;2022-08-19T03:25:50;19.30;99.90
14884;DHT22;7534;50.762;7.000;2022-08-19T03:28:17;19.30;99.90
14884;DHT22;7534;50.762;7.000;2022-08-19T03:30:55;19.30;99.90
14884;DHT22;7534;50.762;7.000;2022-08-19T03:33:23;19.40;99.90
14884;DHT22;7534;50.762;7.000;2022-08-19T03:36:00;19.40;99.90
14884;DHT22;7534;50.762;7.000;2022-08-19T03:38:28;19.40;99.90
14884;DHT22;7534;50.762;7.000;2022-08-19T03:40:53;19.40;99.90
14884;DHT22;7534;50.762;7.000;2022-08-19T03:43:19;19.40;99.90
14884;DHT22;7534;50.762;7.000;2022-08-19T03:45:45;19.40;99.90
14884;DHT22;7534;50.762;7.000;2022-08-19T03:48:11;19.30;99.90
14884;DHT22;7534;50.762;7.000;2022-08-19T03:50:40;19.30;99.90
14884;DHT22;7534;50.762;7.000;2022-08-19T03:53:06;19.30;99.90
14884;DHT22;7534;50.762;7.000;2022-08-19T03:55:38;19.20;99.90
14884;DHT22;7534;50.762;7.000;2022-08-19T03:58:05;19.20;99.90
14884;DHT22;7534;50.762;7.000;2022-08-19T04:00:31;19.20;99.90
14884;DHT22;7534;50.762;7.000;2022-08-19T04:02:58;19.10;99.90
14884;DHT22;7534;50.762;7.000;2022-08-19T04:05:25;19.10;99.90
14884;DHT22;7534;50.762;7.000;2022-08-19T04:10:22;19.00;99.90
14884;DHT22;7534;50.762;7.000;2022-08-19T04:12:49;19.00;99.90
14884;DHT22;7534;50.762;7.000;2022-08-19T04:15:15;19.00;99.90
14884;DHT22;7534;50.762;7.000;2022-08-19T04:17:40;19.00;99.90
14884;DHT22;7534;50.762;7.000;2022-08-19T04:20:06;19.10;99.90
14884;DHT22;7534;50.762;7.000;2022-08-19T04:22:32;19.10;99.90
14884;DHT22;7534;50.762;7.000;2022-08-19T04:24:58;19.10;99.90
14884;DHT22;7534;50.762;7.000;2022-08-19T04:27:23;19.10;99.90
14884;DHT22;7534;50.762;7.000;2022-08-19T04:29:49;18.90;99.90
14884;DHT22;7534;50.762;7.000;2022-08-19T04:32:15;18.90;99.90
14884;DHT22;7534;50.762;7.000;2022-08-19T04:34:41;18.90;99.90
14884;DHT22;7534;50.762;7.000;2022-08-19T04:37:08;19.00;99.90
14884;DHT22;7534;50.762;7.000;2022-08-19T04:39:37;19.00;99.90
14884;DHT22;7534;50.762;7.000;2022-08-19T04:42:21;19.00;99.90
14884;DHT22;7534;50.762;7.000;2022-08-19T04:45:11;18.90;99.90
14884;DHT22;7534;50.762;7.000;2022-08-19T04:47:43;19.00;99.90
14884;DHT22;7534;50.762;7.000;2022-08-19T04:50:10;19.10;99.90
14884;DHT22;7534;50.762;7.000;2022-08-19T04:52:38;19.10;99.90
14884;DHT22;7534;50.762;7.000;2022-08-19T04:55:08;19.00;99.90
14884;DHT22;7534;50.762;7.000;2022-08-19T04:57:35;19.10;99.90
14884;DHT22;7534;50.762;7.000;2022-08-19T05:00:06;19.10;99.90
14884;DHT22;7534;50.762;7.000;2022-08-19T05:02:36;19.20;99.90
14884;DHT22;7534;50.762;7.000;2022-08-19T05:05:03;19.20;99.90
14884;DHT22;7534;50.762;7.000;2022-08-19T05:07:31;19.20;99.90
14884;DHT22;7534;50.762;7.000;2022-08-19T05:09:57;19.30;99.90
14884;DHT22;7534;50.762;7.000;2022-08-19T05:12:23;19.40;99.90
14884;DHT22;7534;50.762;7.000;2022-08-19T05:14:49;19.30;99.90
14884;DHT22;7534;50.762;7.000;2022-08-19T05:17:15;19.30;99.90
14884;DHT22;7534;50.762;7.000;2022-08-19T05:19:40;19.40;99.90
14884;DHT22;7534;50.762;7.000;2022-08-19T05:22:24;19.50;99.90
14884;DHT22;7534;50.762;7.000;2022-08-19T05:25:08;19.50;99.90
14884;DHT22;7534;50.762;7.000;2022-08-19T05:27:37;19.60;99.90
14884;DHT22;7534;50.762;7.000;2022-08-19T05:30:04;19.70;99.90
14884;DHT22;7534;50.762;7.000;2022-08-19T05:32:30;19.70;99.90
14884;DHT22;7534;50.762;7.000;2022-08-19T05:34:56;19.80;99.90
14884;DHT22;7534;50.762;7.000;2022-08-19T05:37:22;19.80;99.90
14884;DHT22;7534;50.762;7.000;2022-08-19T05:39:48;19.90;99.90
14884;DHT22;7534;50.762;7.000;2022-08-19T05:42:14;20.00;99.90
14884;DHT22;7534;50.762;7.000;2022-08-19T05:44:43;20.10;99.90
14884;DHT22;7534;50.762;7.000;2022-08-19T05:47:11;20.10;99.90
14884;DHT22;7534;50.762;7.000;2022-08-19T05:49:38;20.20;99.90
14884;DHT22;7534;50.762;7.000;2022-08-19T05:52:07;20.10;99.90
14884;DHT22;7534;50.762;7.000;2022-08-19T05:54:37;20.20;99.90
14884;DHT22;7534;50.762;7.000;2022-08-19T05:57:07;20.30;99.90
14884;DHT22;7534;50.762;7.000;2022-08-19T05:59:33;20.40;99.90
14884;DHT22;7534;50.762;7.000;2022-08-19T06:02:03;20.50;99.90
14884;DHT22;7534;50.762;7.000;2022-08-19T06:04:30;20.50;99.90
14884;DHT22;7534;50.762;7.000;2022-08-19T06:06:55;20.50;99.90
14884;DHT22;7534;50.762;7.000;2022-08-19T06:09:22;20.60;99.90
14884;DHT22;7534;50.762;7.000;2022-08-19T06:11:53;20.60;99.90
14884;DHT22;7534;50.762;7.000;2022-08-19T06:14:27;20.60;99.90
14884;DHT22;7534;50.762;7.000;2022-08-19T06:16:56;20.70;99.90
14884;DHT22;7534;50.762;7.000;2022-08-19T06:19:23;20.80;99.90
14884;DHT22;7534;50.762;7.000;2022-08-19T06:21:53;20.90;99.90
14884;DHT22;7534;50.762;7.000;2022-08-19T06:24:24;21.00;99.90
14884;DHT22;7534;50.762;7.000;2022-08-19T06:26:52;21.20;99.90
14884;DHT22;7534;50.762;7.000;2022-08-19T06:29:23;21.10;99.90
14884;DHT22;7534;50.762;7.000;2022-08-19T06:31:53;21.30;99.90
14884;DHT22;7534;50.762;7.000;2022-08-19T06:34:21;21.30;99.90
14884;DHT22;7534;50.762;7.000;2022-08-19T06:36:49;21.30;99.90
14884;DHT22;7534;50.762;7.000;2022-08-19T06:39:19;21.50;99.90
14884;DHT22;7534;50.762;7.000;2022-08-19T06:41:50;21.60;99.90
14884;DHT22;7534;50.762;7.000;2022-08-19T06:44:21;21.70;99.90
14884;DHT22;7534;50.762;7.000;2022-08-19T06:46:48;22.00;99.90
14884;DHT22;7534;50.762;7.000;2022-08-19T06:49:16;22.20;99.90
14884;DHT22;7534;50.762;7.000;2022-08-19T06:51:44;22.60;99.70
14884;DHT22;7534;50.762;7.000;2022-08-19T06:54:13;23.20;98.80
14884;DHT22;7534;50.762;7.000;2022-08-19T06:56:40;23.90;98.10
14884;DHT22;7534;50.762;7.000;2022-08-19T06:59:13;24.80;96.80
14884;DHT22;7534;50.762;7.000;2022-08-19T07:01:46;25.80;95.00
14884;DHT22;7534;50.762;7.000;2022-08-19T07:04:20;26.60;94.20
14884;DHT22;7534;50.762;7.000;2022-08-19T07:06:49;27.10;92.30
14884;DHT22;7534;50.762;7.000;2022-08-19T07:09:17;27.70;91.20
14884;DHT22;7534;50.762;7.000;2022-08-19T07:11:48;28.00;90.40
14884;DHT22;7534;50.762;7.000;2022-08-19T07:14:18;28.30;89.50
14884;DHT22;7534;50.762;7.000;2022-08-19T07:16:48;27.70;90.10
14884;DHT22;7534;50.762;7.000;2022-08-19T07:19:16;28.10;89.60
14884;DHT22;7534;50.762;7.000;2022-08-19T07:21:43;28.40;87.80
14884;DHT22;7534;50.762;7.000;2022-08-19T07:24:08;28.30;88.00
14884;DHT22;7534;50.762;7.000;2022-08-19T07:26:40;27.80;89.10
14884;DHT22;7534;50.762;7.000;2022-08-19T07:29:08;27.60;90.10
14884;DHT22;7534;50.762;7.000;2022-08-19T07:31:34;27.80;90.00
14884;DHT22;7534;50.762;7.000;2022-08-19T07:34:07;28.60;87.90
14884;DHT22;7534;50.762;7.000;2022-08-19T07:36:36;29.20;86.00
14884;DHT22;7534;50.762;7.000;2022-08-19T07:39:08;29.50;83.70
14884;DHT22;7534;50.762;7.000;2022-08-19T07:41:36;29.60;82.80
14884;DHT22;7534;50.762;7.000;2022-08-19T07:44:04;29.70;82.20
14884;DHT22;7534;50.762;7.000;2022-08-19T07:46:34;29.90;81.10
14884;DHT22;7534;50.762;7.000;2022-08-19T07:49:04;30.60;79.60
14884;DHT22;7534;50.762;7.000;2022-08-19T07:51:33;30.60;77.50
14884;DHT22;7534;50.762;7.000;2022-08-19T07:53:59;30.80;77.00
14884;DHT22;7534;50.762;7.000;2022-08-19T07:56:26;31.50;74.30
14884;DHT22;7534;50.762;7.000;2022-08-19T07:58:52;31.20;74.20
14884;DHT22;7534;50.762;7.000;2022-08-19T08:01:21;31.40;73.70
14884;DHT22;7534;50.762;7.000;2022-08-19T08:03:51;32.00;71.50
14884;DHT22;7534;50.762;7.000;2022-08-19T08:06:37;32.40;69.30
14884;DHT22;7534;50.762;7.000;2022-08-19T08:09:28;32.50;68.20
14884;DHT22;7534;50.762;7.000;2022-08-19T08:12:06;32.30;69.60
14884;DHT22;7534;50.762;7.000;2022-08-19T08:14:52;32.70;68.40
14884;DHT22;7534;50.762;7.000;2022-08-19T08:17:23;32.90;66.90
14884;DHT22;7534;50.762;7.000;2022-08-19T08:19:51;33.10;66.60
14884;DHT22;7534;50.762;7.000;2022-08-19T08:22:19;33.50;64.10
14884;DHT22;7534;50.762;7.000;2022-08-19T08:25:09;33.40;64.10
14884;DHT22;7534;50.762;7.000;2022-08-19T08:27:40;33.10;64.60
14884;DHT22;7534;50.762;7.000;2022-08-19T08:30:10;32.80;66.20
14884;DHT22;7534;50.762;7.000;2022-08-19T08:32:41;33.10;66.10
14884;DHT22;7534;50.762;7.000;2022-08-19T08:35:11;33.80;64.40
14884;DHT22;7534;50.762;7.000;2022-08-19T08:37:39;33.80;61.90
14884;DHT22;7534;50.762;7.000;2022-08-19T08:40:30;33.70;61.80
14884;DHT22;7534;50.762;7.000;2022-08-19T08:43:09;33.60;63.00
14884;DHT22;7534;50.762;7.000;2022-08-19T08:45:42;33.90;61.30
14884;DHT22;7534;50.762;7.000;2022-08-19T08:48:23;34.20;61.00
14884;DHT22;7534;50.762;7.000;2022-08-19T08:50:57;34.70;59.60
14884;DHT22;7534;50.762;7.000;2022-08-19T08:53:25;35.50;57.70
14884;DHT22;7534;50.762;7.000;2022-08-19T08:55:51;35.80;56.40
14884;DHT22;7534;50.762;7.000;2022-08-19T08:58:24;37.10;54.20
14884;DHT22;7534;50.762;7.000;2022-08-19T09:00:54;38.00;51.60
14884;DHT22;7534;50.762;7.000;2022-08-19T09:03:25;38.60;49.90
14884;DHT22;7534;50.762;7.000;2022-08-19T09:06:04;38.40;48.80
14884;DHT22;7534;50.762;7.000;2022-08-19T09:08:39;38.70;48.30
14884;DHT22;7534;50.762;7.000;2022-08-19T09:11:15;38.70;47.10
14884;DHT22;7534;50.762;7.000;2022-08-19T09:15:00;38.00;48.00
14884;DHT22;7534;50.762;7.000;2022-08-19T09:17:13;38.00;47.60
14884;DHT22;7534;50.762;7.000;2022-08-19T09:19:55;37.90;47.30
14884;DHT22;7534;50.762;7.000;2022-08-19T09:22:29;37.30;49.00
14884;DHT22;7534;50.762;7.000;2022-08-19T09:24:55;37.30;48.60
14884;DHT22;7534;50.762;7.000;2022-08-19T09:27:22;36.80;48.30
14884;DHT22;7534;50.762;7.000;2022-08-19T09:29:50;37.10;48.50
14884;DHT22;7534;50.762;7.000;2022-08-19T09:32:16;37.00;48.00
14884;DHT22;7534;50.762;7.000;2022-08-19T09:34:43;36.50;48.70
14884;DHT22;7534;50.762;7.000;2022-08-19T09:37:09;36.50;48.10
14884;DHT22;7534;50.762;7.000;2022-08-19T09:39:35;36.50;48.80
14884;DHT22;7534;50.762;7.000;2022-08-19T09:42:02;36.30;47.90
14884;DHT22;7534;50.762;7.000;2022-08-19T09:44:29;36.30;47.40
14884;DHT22;7534;50.762;7.000;2022-08-19T09:46:54;36.70;46.50
14884;DHT22;7534;50.762;7.000;2022-08-19T09:49:21;37.00;46.10
14884;DHT22;7534;50.762;7.000;2022-08-19T09:51:51;36.80;45.10
14884;DHT22;7534;50.762;7.000;2022-08-19T09:54:20;36.70;45.00
14884;DHT22;7534;50.762;7.000;2022-08-19T09:56:46;37.30;44.30
14884;DHT22;7534;50.762;7.000;2022-08-19T09:59:11;38.00;43.50
14884;DHT22;7534;50.762;7.000;2022-08-19T10:01:38;38.00;43.40
14884;DHT22;7534;50.762;7.000;2022-08-19T10:04:04;37.10;44.10
14884;DHT22;7534;50.762;7.000;2022-08-19T10:06:35;38.00;43.40
14884;DHT22;7534;50.762;7.000;2022-08-19T10:09:04;38.40;42.80
14884;DHT22;7534;50.762;7.000;2022-08-19T10:11:33;39.00;42.10
14884;DHT22;7534;50.762;7.000;2022-08-19T10:14:01;38.40;41.40
14884;DHT22;7534;50.762;7.000;2022-08-19T10:16:28;38.30;41.50
14884;DHT22;7534;50.762;7.000;2022-08-19T10:18:54;38.50;41.40
14884;DHT22;7534;50.762;7.000;2022-08-19T10:21:27;38.20;41.40
14884;DHT22;7534;50.762;7.000;2022-08-19T10:23:57;38.20;41.60
14884;DHT22;7534;50.762;7.000;2022-08-19T10:26:29;37.20;42.60
14884;DHT22;7534;50.762;7.000;2022-08-19T10:28:57;36.60;44.20
14884;DHT22;7534;50.762;7.000;2022-08-19T10:31:26;35.30;46.00
14884;DHT22;7534;50.762;7.000;2022-08-19T10:33:54;34.90;46.90
14884;DHT22;7534;50.762;7.000;2022-08-19T10:36:34;35.30;46.50
14884;DHT22;7534;50.762;7.000;2022-08-19T10:39:06;35.70;46.50
14884;DHT22;7534;50.762;7.000;2022-08-19T10:41:36;35.00;47.40
14884;DHT22;7534;50.762;7.000;2022-08-19T10:44:08;35.10;47.20
14884;DHT22;7534;50.762;7.000;2022-08-19T10:46:38;35.00;46.80
14884;DHT22;7534;50.762;7.000;2022-08-19T10:49:08;34.40;47.80
14884;DHT22;7534;50.762;7.000;2022-08-19T10:51:37;33.80;48.80
14884;DHT22;7534;50.762;7.000;2022-08-19T10:54:23;33.40;50.20
14884;DHT22;7534;50.762;7.000;2022-08-19T10:57:09;32.50;50.80
14884;DHT22;7534;50.762;7.000;2022-08-19T10:59:35;32.10;52.10
14884;DHT22;7534;50.762;7.000;2022-08-19T11:02:03;32.00;53.30
14884;DHT22;7534;50.762;7.000;2022-08-19T11:04:31;31.70;53.20
14884;DHT22;7534;50.762;7.000;2022-08-19T11:06:57;31.70;53.50
14884;DHT22;7534;50.762;7.000;2022-08-19T11:09:25;31.70;53.60
14884;DHT22;7534;50.762;7.000;2022-08-19T11:11:54;31.60;53.60
14884;DHT22;7534;50.762;7.000;2022-08-19T11:14:22;31.70;53.60
14884;DHT22;7534;50.762;7.000;2022-08-19T11:16:50;31.60;54.80
14884;DHT22;7534;50.762;7.000;2022-08-19T11:19:17;31.30;55.40
14884;DHT22;7534;50.762;7.000;2022-08-19T11:21:46;31.30;55.10
14884;DHT22;7534;50.762;7.000;2022-08-19T11:24:19;31.20;56.00
14884;DHT22;7534;50.762;7.000;2022-08-19T11:26:49;31.20;56.10
14884;DHT22;7534;50.762;7.000;2022-08-19T11:29:18;30.80;56.10
14884;DHT22;7534;50.762;7.000;2022-08-19T11:31:51;30.90;56.30
14884;DHT22;7534;50.762;7.000;2022-08-19T11:34:20;31.00;55.60
14884;DHT22;7534;50.762;7.000;2022-08-19T11:36:49;31.00;55.30
14884;DHT22;7534;50.762;7.000;2022-08-19T11:39:19;30.80;57.30
14884;DHT22;7534;50.762;7.000;2022-08-19T11:41:46;30.80;55.70
14884;DHT22;7534;50.762;7.000;2022-08-19T11:44:12;30.70;56.20
14884;DHT22;7534;50.762;7.000;2022-08-19T11:46:40;30.60;56.70
14884;DHT22;7534;50.762;7.000;2022-08-19T11:49:10;30.20;56.40
14884;DHT22;7534;50.762;7.000;2022-08-19T11:51:36;30.20;55.80
14884;DHT22;7534;50.762;7.000;2022-08-19T11:54:04;30.20;56.10
14884;DHT22;7534;50.762;7.000;2022-08-19T11:56:31;30.00;57.10
14884;DHT22;7534;50.762;7.000;2022-08-19T11:58:57;29.60;59.70
14884;DHT22;7534;50.762;7.000;2022-08-19T12:01:24;29.50;59.80
14884;DHT22;7534;50.762;7.000;2022-08-19T12:03:53;29.50;60.50
14884;DHT22;7534;50.762;7.000;2022-08-19T12:06:22;29.30;59.40
14884;DHT22;7534;50.762;7.000;2022-08-19T12:08:52;29.20;60.10
14884;DHT22;7534;50.762;7.000;2022-08-19T12:11:19;29.20;60.40
14884;DHT22;7534;50.762;7.000;2022-08-19T12:13:45;29.50;61.50
14884;DHT22;7534;50.762;7.000;2022-08-19T12:16:25;29.80;63.40
14884;DHT22;7534;50.762;7.000;2022-08-19T12:18:53;29.70;60.20
14884;DHT22;7534;50.762;7.000;2022-08-19T12:21:23;29.80;59.60
14884;DHT22;7534;50.762;7.000;2022-08-19T12:23:53;29.80;60.40
14884;DHT22;7534;50.762;7.000;2022-08-19T12:26:20;29.90;59.40
14884;DHT22;7534;50.762;7.000;2022-08-19T12:28:46;29.80;58.90
14884;DHT22;7534;50.762;7.000;2022-08-19T12:31:12;29.60;59.60
14884;DHT22;7534;50.762;7.000;2022-08-19T12:33:39;29.20;61.60
14884;DHT22;7534;50.762;7.000;2022-08-19T12:36:09;29.30;62.70
14884;DHT22;7534;50.762;7.000;2022-08-19T12:38:36;29.50;62.20
14884;DHT22;7534;50.762;7.000;2022-08-19T12:41:03;29.50;60.90
14884;DHT22;7534;50.762;7.000;2022-08-19T12:43:30;29.80;62.90
14884;DHT22;7534;50.762;7.000;2022-08-19T12:45:56;29.90;62.10
14884;DHT22;7534;50.762;7.000;2022-08-19T12:48:21;30.00;59.60
14884;DHT22;7534;50.762;7.000;2022-08-19T12:50:47;30.10;57.50
14884;DHT22;7534;50.762;7.000;2022-08-19T12:53:14;29.80;58.40
14884;DHT22;7534;50.762;7.000;2022-08-19T12:55:41;29.80;58.60
14884;DHT22;7534;50.762;7.000;2022-08-19T12:58:08;29.90;57.90
14884;DHT22;7534;50.762;7.000;2022-08-19T13:00:34;30.00;56.30
14884;DHT22;7534;50.762;7.000;2022-08-19T13:03:01;29.80;55.10
14884;DHT22;7534;50.762;7.000;2022-08-19T13:05:30;29.90;55.50
14884;DHT22;7534;50.762;7.000;2022-08-19T13:07:59;30.10;56.20
14884;DHT22;7534;50.762;7.000;2022-08-19T13:10:31;30.20;56.60
14884;DHT22;7534;50.762;7.000;2022-08-19T13:13:05;30.10;56.60
14884;DHT22;7534;50.762;7.000;2022-08-19T13:15:37;30.00;55.30
14884;DHT22;7534;50.762;7.000;2022-08-19T13:18:06;30.10;56.00
14884;DHT22;7534;50.762;7.000;2022-08-19T13:20:35;30.20;54.90
14884;DHT22;7534;50.762;7.000;2022-08-19T13:23:03;30.30;57.00
14884;DHT22;7534;50.762;7.000;2022-08-19T13:25:29;30.30;56.70
14884;DHT22;7534;50.762;7.000;2022-08-19T13:27:55;30.20;57.60
14884;DHT22;7534;50.762;7.000;2022-08-19T13:30:21;30.40;56.00
14884;DHT22;7534;50.762;7.000;2022-08-19T13:33:07;30.70;56.20
14884;DHT22;7534;50.762;7.000;2022-08-19T13:35:38;30.80;54.30
14884;DHT22;7534;50.762;7.000;2022-08-19T13:38:05;30.90;53.80
14884;DHT22;7534;50.762;7.000;2022-08-19T13:40:32;31.00;54.70
14884;DHT22;7534;50.762;7.000;2022-08-19T13:43:00;31.00;52.70
14884;DHT22;7534;50.762;7.000;2022-08-19T13:45:28;31.10;51.20
14884;DHT22;7534;50.762;7.000;2022-08-19T13:47:56;30.90;51.40
14884;DHT22;7534;50.762;7.000;2022-08-19T13:50:25;31.00;52.60
14884;DHT22;7534;50.762;7.000;2022-08-19T13:52:53;30.80;51.90
14884;DHT22;7534;50.762;7.000;2022-08-19T13:55:20;30.80;51.70
14884;DHT22;7534;50.762;7.000;2022-08-19T13:57:51;30.80;52.30
14884;DHT22;7534;50.762;7.000;2022-08-19T14:00:18;30.60;52.80
14884;DHT22;7534;50.762;7.000;2022-08-19T14:02:45;30.70;52.00
14884;DHT22;7534;50.762;7.000;2022-08-19T14:05:14;30.70;52.10
14884;DHT22;7534;50.762;7.000;2022-08-19T14:07:41;30.50;51.80
14884;DHT22;7534;50.762;7.000;2022-08-19T14:10:09;30.50;52.60
14884;DHT22;7534;50.762;7.000;2022-08-19T14:12:37;30.50;52.90
14884;DHT22;7534;50.762;7.000;2022-08-19T14:15:04;30.40;53.30
14884;DHT22;7534;50.762;7.000;2022-08-19T14:17:31;30.20;52.50
14884;DHT22;7534;50.762;7.000;2022-08-19T14:20:02;30.20;53.00
14884;DHT22;7534;50.762;7.000;2022-08-19T14:22:33;30.00;53.10
14884;DHT22;7534;50.762;7.000;2022-08-19T14:25:00;29.70;53.00
14884;DHT22;7534;50.762;7.000;2022-08-19T14:27:26;29.80;54.20
14884;DHT22;7534;50.762;7.000;2022-08-19T14:29:52;29.80;53.50
14884;DHT22;7534;50.762;7.000;2022-08-19T14:32:18;29.70;52.80
14884;DHT22;7534;50.762;7.000;2022-08-19T14:34:44;29.70;53.40
14884;DHT22;7534;50.762;7.000;2022-08-19T14:37:13;29.70;52.80
14884;DHT22;7534;50.762;7.000;2022-08-19T14:39:41;29.90;53.70
14884;DHT22;7534;50.762;7.000;2022-08-19T14:42:08;30.20;53.00
14884;DHT22;7534;50.762;7.000;2022-08-19T14:44:34;30.20;51.40
14884;DHT22;7534;50.762;7.000;2022-08-19T14:47:00;30.10;52.70
14884;DHT22;7534;50.762;7.000;2022-08-19T14:49:26;30.30;51.90
14884;DHT22;7534;50.762;7.000;2022-08-19T14:51:52;30.40;51.80
14884;DHT22;7534;50.762;7.000;2022-08-19T14:54:17;30.40;51.10
14884;DHT22;7534;50.762;7.000;2022-08-19T14:56:43;30.40;51.80
14884;DHT22;7534;50.762;7.000;2022-08-19T14:59:09;30.40;51.10
14884;DHT22;7534;50.762;7.000;2022-08-19T15:01:35;30.60;50.40
14884;DHT22;7534;50.762;7.000;2022-08-19T15:04:01;30.60;49.30
14884;DHT22;7534;50.762;7.000;2022-08-19T15:06:27;30.60;49.50
14884;DHT22;7534;50.762;7.000;2022-08-19T15:08:54;30.50;48.90
14884;DHT22;7534;50.762;7.000;2022-08-19T15:11:22;30.70;49.40
14884;DHT22;7534;50.762;7.000;2022-08-19T15:13:52;30.80;49.40
14884;DHT22;7534;50.762;7.000;2022-08-19T15:16:19;31.00;49.60
14884;DHT22;7534;50.762;7.000;2022-08-19T15:18:48;31.20;48.80
14884;DHT22;7534;50.762;7.000;2022-08-19T15:21:16;31.20;47.90
14884;DHT22;7534;50.762;7.000;2022-08-19T15:23:44;31.20;47.50
14884;DHT22;7534;50.762;7.000;2022-08-19T15:26:10;31.10;47.30
14884;DHT22;7534;50.762;7.000;2022-08-19T15:28:37;30.80;48.40
14884;DHT22;7534;50.762;7.000;2022-08-19T15:31:05;30.70;49.70
14884;DHT22;7534;50.762;7.000;2022-08-19T15:33:33;30.70;49.60
14884;DHT22;7534;50.762;7.000;2022-08-19T15:36:04;30.50;49.10
14884;DHT22;7534;50.762;7.000;2022-08-19T15:38:31;30.60;49.90
14884;DHT22;7534;50.762;7.000;2022-08-19T15:40:59;30.80;49.00
14884;DHT22;7534;50.762;7.000;2022-08-19T15:43:45;30.90;49.40
14884;DHT22;7534;50.762;7.000;2022-08-19T15:46:16;30.90;50.30
14884;DHT22;7534;50.762;7.000;2022-08-19T15:48:44;30.90;51.00
14884;DHT22;7534;50.762;7.000;2022-08-19T15:51:10;30.80;51.30
14884;DHT22;7534;50.762;7.000;2022-08-19T15:53:36;31.00;51.70
14884;DHT22;7534;50.762;7.000;2022-08-19T15:56:02;31.20;51.60
14884;DHT22;7534;50.762;7.000;2022-08-19T15:58:29;31.40;50.30
14884;DHT22;7534;50.762;7.000;2022-08-19T16:01:13;31.60;49.90